Time;durP1;ratioP1;P1;durP2;ratioP2;P2;SDS_P1;SDS_P2;PMS_P1;PMS_P2;Temp;Humidity;BMP_temperature;BMP_pressure;BME280_temperature;BME280_humidity;BME280_pressure;Samples;Min_cycle;Max_cycle;Signal;HPM_P1;HPM_P2
2021/10/21 00:00:25;;;;;;;;;3.75;1.75;;;;;;;;5093325;27;45202;-73
2021/10/21 00:02:50;;;;;;;;;0.25;0.25;;;;;;;;5080919;27;45331;-73
2021/10/21 00:05:15;;;;;;;;;2.75;2.00;;;;;;;;5080222;27;45457;-71
2021/10/21 00:07:41;;;;;;;;;4.25;1.50;;;;;;;;5080135;27;45449;-71
2021/10/21 00:10:06;;;;;;;;;2.50;1.75;;;;;;;;5078380;27;46042;-72
2021/10/21 00:12:32;;;;;;;;;0.75;0.00;;;;;;;;5059037;28;45475;-72
2021/10/21 00:14:59;;;;;;;;;1.50;1.00;;;;;;;;5082287;27;45396;-70
2021/10/21 00:17:24;;;;;;;;;0.75;0.75;;;;;;;;5079760;27;45376;-72
2021/10/21 00:19:49;;;;;;;;;3.00;1.00;;;;;;;;5078456;27;46187;-72
2021/10/21 00:22:14;;;;;;;;;1.25;1.00;;;;;;;;5078247;27;45442;-72
2021/10/21 00:24:39;;;;;;;;;4.00;2.00;;;;;;;;5075915;27;45330;-72
2021/10/21 00:27:05;;;;;;;;;3.00;1.00;;;;;;;;5082041;27;45376;-72
2021/10/21 00:29:30;;;;;;;;;2.00;1.00;;;;;;;;5078730;27;45421;-72
2021/10/21 00:31:55;;;;;;;;;3.00;2.00;;;;;;;;5079481;27;45456;-70
2021/10/21 00:34:20;;;;;;;;;4.25;1.25;;;;;;;;5079889;27;45276;-71
2021/10/21 00:36:45;;;;;;;;;3.25;0.50;;;;;;;;5075462;28;45485;-73
2021/10/21 00:39:11;;;;;;;;;1.25;0.50;;;;;;;;5093084;27;45464;-73
2021/10/21 00:41:36;;;;;;;;;2.50;0.00;;;;;;;;5080331;27;45430;-72
2021/10/21 00:44:08;;;;;;;;;2.00;1.50;;;;;;;;5079900;27;45313;-73
2021/10/21 00:46:33;;;;;;;;;3.00;1.25;;;;;;;;5079563;27;45453;-72
2021/10/21 00:48:58;;;;;;;;;1.00;1.00;;;;;;;;5076873;27;45414;-72
2021/10/21 00:51:23;;;;;;;;;2.75;1.50;;;;;;;;5078736;27;45348;-72
2021/10/21 00:53:48;;;;;;;;;2.00;1.00;;;;;;;;5080681;27;45259;-72
2021/10/21 00:56:14;;;;;;;;;0.00;0.00;;;;;;;;5079605;27;45422;-72
2021/10/21 00:58:40;;;;;;;;;2.50;1.00;;;;;;;;5077841;27;46256;-72
2021/10/21 01:01:05;;;;;;;;;0.00;0.00;;;;;;;;5075890;27;45430;-72
2021/10/21 01:03:30;;;;;;;;;1.00;1.00;;;;;;;;5077150;27;45402;-72
2021/10/21 01:05:56;;;;;;;;;1.50;0.00;;;;;;;;5079422;27;45458;-72
2021/10/21 01:08:21;;;;;;;;;1.00;0.00;;;;;;;;5079364;27;46072;-72
2021/10/21 01:10:47;;;;;;;;;1.00;0.00;;;;;;;;5079259;27;45300;-72
2021/10/21 01:13:12;;;;;;;;;0.25;0.00;;;;;;;;5078614;27;45625;-72
2021/10/21 01:15:37;;;;;;;;;1.75;0.75;;;;;;;;5075375;27;45430;-72
2021/10/21 01:18:02;;;;;;;;;0.75;0.75;;;;;;;;5080936;27;46088;-72
2021/10/21 01:20:28;;;;;;;;;0.00;0.00;;;;;;;;5079215;27;45532;-71
2021/10/21 01:22:53;;;;;;;;;0.50;0.50;;;;;;;;5079442;27;45591;-73
2021/10/21 01:25:19;;;;;;;;;1.25;1.25;;;;;;;;5065644;27;45486;-72
2021/10/21 01:27:45;;;;;;;;;0.00;0.00;;;;;;;;5058392;28;45312;-71
2021/10/21 01:30:21;;;;;;;;;0.00;0.00;;;;;;;;5080654;27;45380;-71
2021/10/21 01:32:46;;;;;;;;;0.00;0.00;;;;;;;;5078386;27;45763;-71
2021/10/21 01:35:11;;;;;;;;;1.00;1.00;;;;;;;;5078951;27;45386;-70
2021/10/21 01:37:36;;;;;;;;;1.00;0.00;;;;;;;;5077393;27;47089;-72
2021/10/21 01:40:02;;;;;;;;;0.00;0.00;;;;;;;;5074878;27;45650;-72
2021/10/21 01:42:28;;;;;;;;;0.00;0.00;;;;;;;;5077525;27;45482;-72
2021/10/21 01:44:54;;;;;;;;;0.00;0.00;;;;;;;;5080331;27;45551;-72
2021/10/21 01:47:19;;;;;;;;;0.00;0.00;;;;;;;;5078479;27;45465;-71
2021/10/21 01:49:44;;;;;;;;;1.00;0.00;;;;;;;;5077137;27;45325;-72
2021/10/21 01:52:09;;;;;;;;;0.25;0.00;;;;;;;;5076077;27;45384;-73
2021/10/21 01:54:35;;;;;;;;;0.00;0.00;;;;;;;;5074425;27;45391;-72
2021/10/21 01:57:00;;;;;;;;;2.00;1.00;;;;;;;;5079337;27;46284;-71
2021/10/21 01:59:25;;;;;;;;;1.00;0.00;;;;;;;;5075442;27;45311;-71
2021/10/21 02:01:51;;;;;;;;;0.75;0.75;;;;;;;;5077298;27;45268;-72
2021/10/21 02:04:16;;;;;;;;;2.75;0.00;;;;;;;;5076941;27;45507;-72
2021/10/21 02:06:41;;;;;;;;;0.75;0.75;;;;;;;;5073007;27;45371;-72
2021/10/21 02:09:06;;;;;;;;;1.75;0.00;;;;;;;;5079147;27;45423;-72
2021/10/21 02:11:32;;;;;;;;;0.00;0.00;;;;;;;;5077294;27;45462;-72
2021/10/21 02:13:57;;;;;;;;;2.50;0.00;;;;;;;;5076848;27;45459;-72
2021/10/21 02:16:23;;;;;;;;;0.00;0.00;;;;;;;;5075360;27;46138;-72
2021/10/21 02:18:48;;;;;;;;;2.75;0.50;;;;;;;;5070897;27;45427;-72
2021/10/21 02:21:13;;;;;;;;;1.25;0.00;;;;;;;;5080148;27;45366;-72
2021/10/21 02:23:38;;;;;;;;;2.50;0.00;;;;;;;;5077247;27;45208;-72
2021/10/21 02:26:04;;;;;;;;;0.00;0.00;;;;;;;;5076708;27;47163;-72
2021/10/21 02:28:29;;;;;;;;;0.00;0.00;;;;;;;;5076501;27;45749;-72
2021/10/21 02:30:54;;;;;;;;;0.00;0.00;;;;;;;;5073521;27;45564;-72
2021/10/21 02:33:19;;;;;;;;;0.75;0.00;;;;;;;;5077473;27;45451;-72
2021/10/21 02:35:45;;;;;;;;;0.75;0.00;;;;;;;;5077251;27;46387;-72
2021/10/21 02:38:11;;;;;;;;;0.00;0.00;;;;;;;;5075357;27;45632;-72
2021/10/21 02:40:36;;;;;;;;;0.00;0.00;;;;;;;;5076829;27;45389;-71
2021/10/21 02:43:02;;;;;;;;;0.00;0.00;;;;;;;;5074517;27;45440;-72
2021/10/21 02:45:27;;;;;;;;;1.00;0.00;;;;;;;;5074988;27;47230;-72
2021/10/21 02:47:56;;;;;;;;;0.00;0.00;;;;;;;;5078271;27;45471;-71
2021/10/21 02:50:21;;;;;;;;;0.00;0.00;;;;;;;;4968018;27;3082123;-72
2021/10/21 02:52:47;;;;;;;;;0.00;0.00;;;;;;;;5077668;27;45484;-72
2021/10/21 02:55:12;;;;;;;;;0.00;0.00;;;;;;;;5077080;27;45952;-72
2021/10/21 02:57:37;;;;;;;;;1.00;0.00;;;;;;;;5075724;27;45351;-74
2021/10/21 03:00:03;;;;;;;;;0.00;0.00;;;;;;;;5078531;27;45389;-72
2021/10/21 03:02:29;;;;;;;;;1.50;0.75;;;;;;;;5078640;27;45278;-72
2021/10/21 03:04:54;;;;;;;;;1.25;0.00;;;;;;;;5078148;27;46173;-72
2021/10/21 03:07:19;;;;;;;;;1.25;0.00;;;;;;;;5077604;27;45475;-72
2021/10/21 03:09:44;;;;;;;;;1.00;1.00;;;;;;;;5074793;28;45355;-71
2021/10/21 03:12:09;;;;;;;;;0.00;0.00;;;;;;;;5073020;27;45472;-72
2021/10/21 03:14:35;;;;;;;;;0.00;0.00;;;;;;;;5078438;27;46293;-72
2021/10/21 03:17:00;;;;;;;;;0.00;0.00;;;;;;;;5077668;27;45386;-72
2021/10/21 03:19:25;;;;;;;;;0.00;0.00;;;;;;;;5075980;27;45427;-72
2021/10/21 03:21:50;;;;;;;;;0.00;0.00;;;;;;;;5073817;27;45494;-72
2021/10/21 03:24:16;;;;;;;;;1.00;0.00;;;;;;;;5078342;27;46495;-72
2021/10/21 03:26:41;;;;;;;;;1.00;1.00;;;;;;;;5077371;27;45506;-72
2021/10/21 03:29:06;;;;;;;;;1.00;1.00;;;;;;;;5077592;27;45426;-71
2021/10/21 03:31:31;;;;;;;;;0.00;0.00;;;;;;;;5077264;27;45435;-72
2021/10/21 03:33:57;;;;;;;;;3.00;2.00;;;;;;;;5073016;27;45496;-72
2021/10/21 03:36:23;;;;;;;;;1.75;0.75;;;;;;;;5076284;27;45331;-71
2021/10/21 03:38:48;;;;;;;;;2.00;1.00;;;;;;;;5076472;27;45617;-71
2021/10/21 03:41:13;;;;;;;;;6.00;3.75;;;;;;;;5076935;27;45332;-71
2021/10/21 03:43:38;;;;;;;;;2.25;1.00;;;;;;;;5076820;27;45464;-71
2021/10/21 03:46:03;;;;;;;;;1.00;1.00;;;;;;;;5075261;27;45418;-71
2021/10/21 03:48:29;;;;;;;;;4.00;1.00;;;;;;;;5075660;27;45423;-71
2021/10/21 03:50:54;;;;;;;;;0.00;0.00;;;;;;;;5082126;27;45395;-71
2021/10/21 03:53:19;;;;;;;;;2.75;1.00;;;;;;;;5080082;27;46999;-72
2021/10/21 03:55:44;;;;;;;;;0.00;0.00;;;;;;;;5079990;27;45471;-71
2021/10/21 03:58:10;;;;;;;;;1.00;0.00;;;;;;;;5079181;27;45423;-73
2021/10/21 04:00:35;;;;;;;;;0.00;0.00;;;;;;;;5076901;27;45376;-71
2021/10/21 04:03:01;;;;;;;;;3.25;0.50;;;;;;;;5082227;27;45989;-71
2021/10/21 04:05:26;;;;;;;;;0.25;0.00;;;;;;;;5080293;27;45802;-72
2021/10/21 04:07:51;;;;;;;;;1.00;0.50;;;;;;;;5080143;27;45376;-72
2021/10/21 04:10:17;;;;;;;;;1.00;0.75;;;;;;;;5079520;27;45476;-72
2021/10/21 04:12:43;;;;;;;;;0.75;0.00;;;;;;;;5074494;27;45381;-72
2021/10/21 04:15:08;;;;;;;;;1.00;0.00;;;;;;;;5081441;27;45253;-72
2021/10/21 04:17:34;;;;;;;;;0.75;0.75;;;;;;;;5078475;27;45339;-72
2021/10/21 04:19:59;;;;;;;;;1.50;0.00;;;;;;;;5079881;27;45489;-72
2021/10/21 04:22:24;;;;;;;;;0.00;0.00;;;;;;;;5079933;27;47076;-72
2021/10/21 04:24:49;;;;;;;;;1.25;0.00;;;;;;;;5075572;27;45290;-72
2021/10/21 04:27:15;;;;;;;;;0.00;0.00;;;;;;;;5081147;27;45395;-72
2021/10/21 04:29:40;;;;;;;;;0.50;0.50;;;;;;;;5077985;27;45590;-73
2021/10/21 04:32:06;;;;;;;;;0.00;0.00;;;;;;;;5078873;27;46273;-72
2021/10/21 04:34:31;;;;;;;;;1.00;0.00;;;;;;;;5061051;27;45250;-73
2021/10/21 04:36:56;;;;;;;;;0.00;0.00;;;;;;;;5075163;28;45350;-73
2021/10/21 04:39:22;;;;;;;;;0.00;0.00;;;;;;;;5092011;27;45306;-72
2021/10/21 04:41:47;;;;;;;;;3.00;1.00;;;;;;;;5079761;27;47283;-72
2021/10/21 04:44:13;;;;;;;;;2.00;2.00;;;;;;;;5079097;27;45260;-72
2021/10/21 04:46:38;;;;;;;;;4.00;2.00;;;;;;;;5079231;27;45478;-72
2021/10/21 04:49:03;;;;;;;;;0.25;0.00;;;;;;;;5077229;27;45478;-73
2021/10/21 04:51:29;;;;;;;;;1.75;1.00;;;;;;;;5076871;27;45985;-73
2021/10/21 04:53:54;;;;;;;;;1.25;0.75;;;;;;;;5078039;27;45351;-71
2021/10/21 04:56:19;;;;;;;;;0.50;0.50;;;;;;;;5076840;27;45312;-73
2021/10/21 04:58:44;;;;;;;;;1.00;0.00;;;;;;;;5078506;27;45346;-73
2021/10/21 05:01:09;;;;;;;;;3.00;1.50;;;;;;;;5076131;27;46315;-73
2021/10/21 05:03:35;;;;;;;;;3.00;1.00;;;;;;;;5075414;27;45382;-73
2021/10/21 05:06:00;;;;;;;;;2.50;1.00;;;;;;;;5080759;27;45427;-72
2021/10/21 05:08:25;;;;;;;;;0.00;0.00;;;;;;;;5059770;28;45394;-72
2021/10/21 05:10:50;;;;;;;;;1.00;0.00;;;;;;;;5078294;27;47165;-73
2021/10/21 05:13:16;;;;;;;;;0.00;0.00;;;;;;;;5078061;27;45431;-72
2021/10/21 05:15:41;;;;;;;;;2.75;0.50;;;;;;;;5074207;27;45466;-72
2021/10/21 05:18:07;;;;;;;;;0.00;0.00;;;;;;;;5080043;27;45225;-72
2021/10/21 05:20:33;;;;;;;;;1.00;1.00;;;;;;;;5077283;27;45519;-72
2021/10/21 05:22:58;;;;;;;;;2.00;1.00;;;;;;;;5077102;27;45520;-73
2021/10/21 05:25:23;;;;;;;;;2.00;1.25;;;;;;;;5076772;27;45423;-72
2021/10/21 05:27:48;;;;;;;;;0.00;0.00;;;;;;;;5074323;27;45302;-73
2021/10/21 05:30:13;;;;;;;;;1.00;1.00;;;;;;;;5079641;27;46734;-72
2021/10/21 05:32:39;;;;;;;;;0.00;0.00;;;;;;;;5078418;27;45406;-72
2021/10/21 05:35:04;;;;;;;;;1.00;0.50;;;;;;;;5077892;27;45381;-73
2021/10/21 05:37:29;;;;;;;;;1.00;1.00;;;;;;;;5077114;27;45459;-73
2021/10/21 05:39:55;;;;;;;;;1.00;1.00;;;;;;;;5073580;27;46421;-71
2021/10/21 05:42:20;;;;;;;;;2.75;1.00;;;;;;;;5077546;27;45354;-73
2021/10/21 05:44:45;;;;;;;;;2.00;1.00;;;;;;;;5077755;27;45453;-72
2021/10/21 05:47:11;;;;;;;;;2.00;0.50;;;;;;;;5075490;27;45600;-72
2021/10/21 05:49:36;;;;;;;;;1.00;1.00;;;;;;;;5076730;27;46179;-72
2021/10/21 05:52:01;;;;;;;;;3.00;1.00;;;;;;;;5074742;27;45593;-73
2021/10/21 05:54:27;;;;;;;;;3.50;2.50;;;;;;;;5075743;27;45414;-73
2021/10/21 05:56:52;;;;;;;;;4.00;1.25;;;;;;;;5079302;27;45274;-72
2021/10/21 05:59:17;;;;;;;;;2.00;2.00;;;;;;;;5076931;27;45458;-74
2021/10/21 06:01:42;;;;;;;;;3.75;2.00;;;;;;;;5076792;27;45542;-72
2021/10/21 06:04:08;;;;;;;;;3.00;2.00;;;;;;;;5075429;27;45812;-72
2021/10/21 06:06:37;;;;;;;;;2.00;1.00;;;;;;;;5073146;27;45335;-71
2021/10/21 06:09:03;;;;;;;;;1.75;1.00;;;;;;;;5078674;27;45406;-75
2021/10/21 06:11:28;;;;;;;;;0.75;0.75;;;;;;;;5074380;27;45380;-72
2021/10/21 06:13:54;;;;;;;;;5.25;3.25;;;;;;;;5074977;27;45291;-72
2021/10/21 06:16:19;;;;;;;;;1.25;0.75;;;;;;;;5076686;27;45375;-72
2021/10/21 06:18:44;;;;;;;;;4.25;3.50;;;;;;;;5072687;28;46241;-71
2021/10/21 06:21:11;;;;;;;;;2.00;1.25;;;;;;;;5078266;27;45548;-71
2021/10/21 06:23:37;;;;;;;;;4.25;1.75;;;;;;;;5076815;27;45278;-73
2021/10/21 06:26:02;;;;;;;;;1.50;1.50;;;;;;;;5075891;27;45461;-71
2021/10/21 06:28:27;;;;;;;;;1.00;1.00;;;;;;;;5076509;27;45470;-72
2021/10/21 06:30:52;;;;;;;;;3.50;2.50;;;;;;;;5073217;27;45253;-73
2021/10/21 06:33:18;;;;;;;;;2.75;2.75;;;;;;;;5058670;28;45371;-73
2021/10/21 06:35:43;;;;;;;;;4.00;2.00;;;;;;;;5058067;28;45323;-72
2021/10/21 06:38:09;;;;;;;;;1.00;1.00;;;;;;;;5076256;27;45456;-72
2021/10/21 06:40:34;;;;;;;;;2.25;1.50;;;;;;;;5057822;27;45724;-73
2021/10/21 06:43:00;;;;;;;;;2.00;1.00;;;;;;;;5073972;27;45403;-73
2021/10/21 06:45:25;;;;;;;;;2.25;1.75;;;;;;;;5075725;27;45462;-73
2021/10/21 06:47:50;;;;;;;;;1.00;1.00;;;;;;;;5077762;27;45381;-72
2021/10/21 06:50:16;;;;;;;;;2.00;2.00;;;;;;;;5074552;27;45428;-73
2021/10/21 06:52:44;;;;;;;;;2.00;2.00;;;;;;;;5074933;27;45453;-74
2021/10/21 06:55:09;;;;;;;;;2.00;2.00;;;;;;;;5074889;27;45477;-74
2021/10/21 06:57:45;;;;;;;;;7.50;3.00;;;;;;;;5072429;27;47219;-71
2021/10/21 07:00:10;;;;;;;;;6.00;2.00;;;;;;;;5077234;27;45312;-71
2021/10/21 07:02:36;;;;;;;;;6.50;2.00;;;;;;;;5075395;27;45289;-72
2021/10/21 07:05:01;;;;;;;;;3.00;2.00;;;;;;;;5075478;27;45610;-70
2021/10/21 07:07:26;;;;;;;;;4.25;2.75;;;;;;;;5075725;27;45872;-70
2021/10/21 07:09:53;;;;;;;;;2.75;1.75;;;;;;;;5072706;27;45464;-71
2021/10/21 07:12:18;;;;;;;;;4.50;3.25;;;;;;;;5076672;27;45666;-72
2021/10/21 07:14:44;;;;;;;;;5.75;2.50;;;;;;;;5075976;27;45402;-73
2021/10/21 07:17:09;;;;;;;;;3.25;2.00;;;;;;;;5081300;27;45949;-72
2021/10/21 07:19:34;;;;;;;;;2.75;2.00;;;;;;;;5084215;27;45288;-72
2021/10/21 07:21:59;;;;;;;;;3.75;3.25;;;;;;;;5072762;27;45394;-72
2021/10/21 07:24:24;;;;;;;;;1.00;1.00;;;;;;;;5077179;27;45350;-72
2021/10/21 07:26:51;;;;;;;;;5.00;3.00;;;;;;;;5079716;27;47483;-71
2021/10/21 07:29:17;;;;;;;;;6.75;3.75;;;;;;;;5077291;27;45533;-71
2021/10/21 07:31:42;;;;;;;;;9.75;3.50;;;;;;;;5077491;27;45405;-72
2021/10/21 07:34:07;;;;;;;;;6.00;2.50;;;;;;;;5077094;27;45446;-71
2021/10/21 07:36:33;;;;;;;;;3.25;2.00;;;;;;;;5076458;27;46181;-72
2021/10/21 07:38:58;;;;;;;;;2.75;2.75;;;;;;;;5080745;27;45502;-72
2021/10/21 07:41:27;;;;;;;;;1.75;1.25;;;;;;;;5078702;27;45513;-71
2021/10/21 07:43:52;;;;;;;;;5.75;3.25;;;;;;;;5078790;27;45503;-71
2021/10/21 07:46:17;;;;;;;;;1.25;1.00;;;;;;;;5078144;27;46285;-72
2021/10/21 07:48:43;;;;;;;;;5.25;1.25;;;;;;;;5073537;27;45299;-70
2021/10/21 07:51:09;;;;;;;;;2.50;2.25;;;;;;;;5080694;27;45319;-71
2021/10/21 07:53:34;;;;;;;;;2.75;1.75;;;;;;;;5078697;27;45501;-70
2021/10/21 07:56:01;;;;;;;;;9.50;4.00;;;;;;;;5078327;27;46044;-72
2021/10/21 07:58:26;;;;;;;;;4.75;3.00;;;;;;;;5078973;27;45555;-71
2021/10/21 08:00:51;;;;;;;;;1.00;1.00;;;;;;;;5056575;27;45431;-72
2021/10/21 08:03:19;;;;;;;;;2.50;2.00;;;;;;;;5079166;27;45470;-72
2021/10/21 08:05:45;;;;;;;;;3.00;2.00;;;;;;;;5078799;27;45192;-72
2021/10/21 08:08:10;;;;;;;;;3.75;1.00;;;;;;;;5076496;27;45533;-71
2021/10/21 08:10:35;;;;;;;;;3.75;3.00;;;;;;;;5077216;27;45287;-70
2021/10/21 08:13:01;;;;;;;;;2.00;0.00;;;;;;;;5076070;27;45545;-72
2021/10/21 08:15:26;;;;;;;;;3.00;2.25;;;;;;;;5077504;27;45820;-71
2021/10/21 08:17:53;;;;;;;;;5.25;2.50;;;;;;;;5078977;27;45391;-70
2021/10/21 08:20:19;;;;;;;;;4.00;2.75;;;;;;;;5078322;27;45578;-73
2021/10/21 08:22:47;;;;;;;;;6.00;2.25;;;;;;;;5078163;27;45562;-72
2021/10/21 08:25:13;;;;;;;;;1.50;1.50;;;;;;;;5076030;27;47228;-74
2021/10/21 08:27:39;;;;;;;;;1.25;1.00;;;;;;;;5074519;27;45345;-72
2021/10/21 08:30:04;;;;;;;;;3.75;2.25;;;;;;;;5079879;27;45423;-74
2021/10/21 08:32:30;;;;;;;;;1.00;1.00;;;;;;;;5077473;27;45401;-73
2021/10/21 08:34:55;;;;;;;;;8.50;3.50;;;;;;;;5077916;27;46420;-71
2021/10/21 08:37:20;;;;;;;;;1.00;1.00;;;;;;;;5076344;27;45437;-72
2021/10/21 08:39:46;;;;;;;;;7.25;3.50;;;;;;;;5073297;28;45306;-71
2021/10/21 08:42:11;;;;;;;;;3.25;1.00;;;;;;;;5079874;27;45387;-73
2021/10/21 08:44:38;;;;;;;;;4.50;2.25;;;;;;;;5077053;27;45592;-73
2021/10/21 08:47:04;;;;;;;;;1.75;1.75;;;;;;;;5076432;27;45364;-74
2021/10/21 08:49:30;;;;;;;;;4.00;4.00;;;;;;;;5076143;27;45394;-73
2021/10/21 08:51:55;;;;;;;;;4.50;3.00;;;;;;;;5073940;27;45572;-73
2021/10/21 08:54:22;;;;;;;;;4.50;3.50;;;;;;;;5078062;27;45283;-73
2021/10/21 08:56:48;;;;;;;;;3.75;1.25;;;;;;;;5078985;27;45415;-74
2021/10/21 08:59:13;;;;;;;;;3.00;1.00;;;;;;;;5077752;27;45479;-74
2021/10/21 09:01:43;;;;;;;;;3.00;2.50;;;;;;;;5077854;27;45474;-75
2021/10/21 09:04:37;;;;;;;;;2.25;0.00;;;;;;;;5076310;27;46727;-74
2021/10/21 09:09:33;;;;;;;;;4.00;3.00;;;;;;;;5074968;27;45380;-75
2021/10/21 09:12:14;;;;;;;;;2.75;1.50;;;;;;;;5079670;27;45421;-75
2021/10/21 09:14:41;;;;;;;;;1.25;1.25;;;;;;;;5075185;27;47327;-74
2021/10/21 09:17:08;;;;;;;;;3.00;3.00;;;;;;;;5077433;27;45315;-73
2021/10/21 09:19:34;;;;;;;;;5.00;2.75;;;;;;;;5077364;27;45586;-76
2021/10/21 09:22:00;;;;;;;;;1.00;1.00;;;;;;;;5074945;27;45655;-74
2021/10/21 09:24:28;;;;;;;;;2.00;1.00;;;;;;;;5076168;27;45486;-75
2021/10/21 09:27:04;;;;;;;;;6.00;1.75;;;;;;;;5076609;27;46090;-74
2021/10/21 09:29:30;;;;;;;;;2.00;1.25;;;;;;;;5074690;27;45353;-73
2021/10/21 09:32:03;;;;;;;;;2.75;2.00;;;;;;;;5074903;27;45374;-76
2021/10/21 09:34:28;;;;;;;;;3.50;2.75;;;;;;;;5076460;27;47085;-76
2021/10/21 09:36:53;;;;;;;;;2.75;1.50;;;;;;;;5054916;27;45457;-74
2021/10/21 09:39:18;;;;;;;;;2.25;0.50;;;;;;;;5077976;27;45264;-76
2021/10/21 09:41:44;;;;;;;;;0.00;0.00;;;;;;;;5077822;27;45446;-79
2021/10/21 09:44:24;;;;;;;;;3.25;1.75;;;;;;;;5076505;27;46313;-75
2021/10/21 09:46:50;;;;;;;;;4.50;1.00;;;;;;;;5076090;27;45574;-78
2021/10/21 09:49:16;;;;;;;;;2.00;1.00;;;;;;;;5076982;27;45194;-75
2021/10/21 09:51:42;;;;;;;;;6.00;3.75;;;;;;;;5072686;27;45535;-76
2021/10/21 09:54:07;;;;;;;;;1.00;0.00;;;;;;;;5078628;27;46112;-75
2021/10/21 09:56:51;;;;;;;;;3.25;1.25;;;;;;;;5077210;27;45434;-75
2021/10/21 09:59:23;;;;;;;;;1.25;1.25;;;;;;;;5076939;27;45459;-76
2021/10/21 10:01:48;;;;;;;;;1.25;1.25;;;;;;;;5077461;27;45347;-75
2021/10/21 10:04:14;;;;;;;;;2.25;0.75;;;;;;;;5074219;27;46237;-75
2021/10/21 10:06:39;;;;;;;;;4.00;2.00;;;;;;;;5088975;27;45444;-76
2021/10/21 10:09:04;;;;;;;;;1.00;1.00;;;;;;;;5077393;27;45486;-76
2021/10/21 10:11:30;;;;;;;;;4.25;1.25;;;;;;;;5076611;27;45420;-75
2021/10/21 10:13:55;;;;;;;;;3.50;2.00;;;;;;;;5076493;27;46140;-75
2021/10/21 10:16:22;;;;;;;;;3.67;2.00;;;;;;;;5076224;27;45569;-76
2021/10/21 10:18:47;;;;;;;;;2.75;2.00;;;;;;;;5071849;27;45587;-74
2021/10/21 10:21:18;;;;;;;;;2.00;0.75;;;;;;;;5084935;27;45310;-75
2021/10/21 10:23:50;;;;;;;;;2.75;2.75;;;;;;;;5076620;27;45253;-75
2021/10/21 10:26:34;;;;;;;;;4.75;2.25;;;;;;;;5076288;27;45327;-74
2021/10/21 10:28:59;;;;;;;;;3.50;2.00;;;;;;;;5076536;27;45553;-76
2021/10/21 10:31:39;;;;;;;;;3.67;1.00;;;;;;;;5076401;27;45522;-76
2021/10/21 10:34:04;;;;;;;;;2.00;1.00;;;;;;;;5076222;27;45380;-76
2021/10/21 10:36:30;;;;;;;;;1.00;1.00;;;;;;;;5073960;27;47321;-76
2021/10/21 10:38:57;;;;;;;;;2.00;1.00;;;;;;;;5078250;27;45330;-74
2021/10/21 10:41:41;;;;;;;;;2.00;1.00;;;;;;;;5076108;27;45283;-77
2021/10/21 10:44:06;;;;;;;;;2.00;2.00;;;;;;;;5074203;27;45319;-76
2021/10/21 10:46:47;;;;;;;;;2.25;1.25;;;;;;;;5074445;27;45341;-75
2021/10/21 10:49:32;;;;;;;;;2.00;2.00;;;;;;;;5073686;27;45372;-75
2021/10/21 10:51:58;;;;;;;;;1.50;1.50;;;;;;;;5058108;27;45510;-76
2021/10/21 10:54:50;;;;;;;;;1.50;0.50;;;;;;;;5075146;27;45530;-76
2021/10/21 10:57:24;;;;;;;;;7.00;4.25;;;;;;;;5021708;28;45512;-75
2021/10/21 10:59:50;;;;;;;;;2.75;1.75;;;;;;;;5017287;28;45322;-75
2021/10/21 11:02:24;;;;;;;;;0.75;0.75;;;;;;;;5018188;28;45454;-75
2021/10/21 11:04:56;;;;;;;;;0.00;0.00;;;;;;;;5018427;28;46688;-76
2021/10/21 11:07:22;;;;;;;;;1.00;1.00;;;;;;;;5017849;28;45441;-77
2021/10/21 11:09:50;;;;;;;;;1.00;1.00;;;;;;;;5013354;28;45327;-77
2021/10/21 11:12:24;;;;;;;;;2.25;2.25;;;;;;;;5030164;28;45495;-76
2021/10/21 11:14:54;;;;;;;;;2.00;2.00;;;;;;;;5017393;28;46290;-75
2021/10/21 11:17:39;;;;;;;;;3.75;3.50;;;;;;;;5017287;28;45472;-75
2021/10/21 11:20:04;;;;;;;;;1.25;1.00;;;;;;;;5016516;28;45413;-74
2021/10/21 11:22:34;;;;;;;;;2.50;2.50;;;;;;;;5017548;28;45549;-76
2021/10/21 11:25:02;;;;;;;;;4.25;2.25;;;;;;;;5014959;28;46134;-75
2021/10/21 11:27:30;;;;;;;;;3.00;3.00;;;;;;;;5016113;28;45507;-75
2021/10/21 11:29:59;;;;;;;;;3.25;1.75;;;;;;;;5017983;28;45495;-75
2021/10/21 11:32:29;;;;;;;;;6.25;3.50;;;;;;;;5027087;28;45732;-76
2021/10/21 11:34:54;;;;;;;;;4.75;3.00;;;;;;;;5075402;27;45370;-76
2021/10/21 11:37:32;;;;;;;;;3.25;2.50;;;;;;;;5079023;27;45534;-74
2021/10/21 11:39:57;;;;;;;;;5.00;3.00;;;;;;;;5061703;27;45385;-75
2021/10/21 11:42:27;;;;;;;;;6.00;4.00;;;;;;;;5079484;27;45370;-75
2021/10/21 11:45:00;;;;;;;;;5.00;2.00;;;;;;;;5080606;27;47526;-75
2021/10/21 11:47:26;;;;;;;;;3.25;2.75;;;;;;;;5078158;27;46007;-76
2021/10/21 11:49:55;;;;;;;;;2.75;1.00;;;;;;;;5079051;27;45524;-76
2021/10/21 11:52:20;;;;;;;;;2.50;1.75;;;;;;;;5079063;27;45515;-76
2021/10/21 11:54:46;;;;;;;;;3.50;3.00;;;;;;;;5074164;27;45330;-76
2021/10/21 11:57:11;;;;;;;;;5.00;2.75;;;;;;;;5081231;27;45313;-75
2021/10/21 11:59:38;;;;;;;;;2.75;2.00;;;;;;;;5078890;27;45405;-75
2021/10/21 12:02:11;;;;;;;;;2.75;2.00;;;;;;;;5078128;27;45531;-77
2021/10/21 12:04:36;;;;;;;;;4.00;2.75;;;;;;;;5077704;27;45430;-76
2021/10/21 12:07:01;;;;;;;;;2.50;2.50;;;;;;;;5076720;27;45446;-75
2021/10/21 12:09:30;;;;;;;;;4.50;1.25;;;;;;;;5077416;27;45403;-75
2021/10/21 12:12:06;;;;;;;;;4.50;3.50;;;;;;;;5080609;27;45446;-75
2021/10/21 12:14:32;;;;;;;;;5.75;3.00;;;;;;;;5078586;27;46490;-76
2021/10/21 12:16:57;;;;;;;;;6.75;4.00;;;;;;;;5078765;27;45359;-73
2021/10/21 12:19:24;;;;;;;;;6.25;4.50;;;;;;;;5078607;27;45535;-76
2021/10/21 12:21:51;;;;;;;;;3.00;2.00;;;;;;;;5089906;27;45329;-75
2021/10/21 12:24:19;;;;;;;;;6.50;3.25;;;;;;;;5079796;27;46323;-75
2021/10/21 12:26:51;;;;;;;;;6.00;4.25;;;;;;;;5078899;27;46090;-75
2021/10/21 12:29:17;;;;;;;;;5.25;3.00;;;;;;;;5079163;27;45312;-74
2021/10/21 12:31:42;;;;;;;;;5.00;4.00;;;;;;;;5079062;27;45438;-75
2021/10/21 12:34:13;;;;;;;;;4.25;4.25;;;;;;;;5077211;27;45396;-75
2021/10/21 12:36:44;;;;;;;;;3.25;1.25;;;;;;;;5074931;27;45430;-74
2021/10/21 12:39:10;;;;;;;;;3.75;2.50;;;;;;;;5080620;27;45403;-75
2021/10/21 12:41:52;;;;;;;;;7.50;4.25;;;;;;;;5076915;27;45382;-75
2021/10/21 12:44:19;;;;;;;;;4.75;3.75;;;;;;;;5076569;27;46378;-74
2021/10/21 12:46:44;;;;;;;;;3.50;1.50;;;;;;;;5078200;27;45533;-75
2021/10/21 12:49:21;;;;;;;;;1.00;1.00;;;;;;;;5076273;27;45526;-76
2021/10/21 12:51:46;;;;;;;;;3.00;3.00;;;;;;;;5057192;28;45464;-77
2021/10/21 12:54:23;;;;;;;;;3.50;2.75;;;;;;;;5079943;27;45394;-75
2021/10/21 12:56:54;;;;;;;;;3.25;3.25;;;;;;;;5080970;27;45391;-75
2021/10/21 12:59:20;;;;;;;;;7.00;4.50;;;;;;;;5060047;27;45530;-75
2021/10/21 13:01:55;;;;;;;;;7.75;4.00;;;;;;;;5078252;27;45399;-75
2021/10/21 13:04:36;;;;;;;;;5.25;3.50;;;;;;;;5078278;27;46197;-75
2021/10/21 13:07:01;;;;;;;;;6.25;4.50;;;;;;;;5075116;27;45582;-74
2021/10/21 13:09:29;;;;;;;;;4.50;2.50;;;;;;;;5076864;27;45450;-74
2021/10/21 13:11:54;;;;;;;;;3.50;2.25;;;;;;;;5079386;27;45375;-74
2021/10/21 13:14:19;;;;;;;;;4.25;3.25;;;;;;;;5077894;27;46105;-75
2021/10/21 13:16:47;;;;;;;;;4.00;3.75;;;;;;;;5077939;27;45510;-75
2021/10/21 13:19:12;;;;;;;;;9.00;5.25;;;;;;;;5075188;27;45431;-74
2021/10/21 13:21:37;;;;;;;;;5.25;3.25;;;;;;;;5073810;27;45292;-75
2021/10/21 13:24:02;;;;;;;;;3.50;2.50;;;;;;;;5078746;27;46498;-74
2021/10/21 13:26:28;;;;;;;;;2.50;2.50;;;;;;;;5079401;27;45605;-74
2021/10/21 13:28:53;;;;;;;;;4.00;2.75;;;;;;;;5078077;27;45354;-75
2021/10/21 13:31:19;;;;;;;;;8.25;6.25;;;;;;;;5077476;27;45652;-75
2021/10/21 13:33:44;;;;;;;;;5.75;2.50;;;;;;;;5073124;27;46243;-80
2021/10/21 13:36:09;;;;;;;;;2.75;2.75;;;;;;;;5079562;27;45391;-75
2021/10/21 13:38:34;;;;;;;;;3.75;2.75;;;;;;;;5077072;27;45494;-74
2021/10/21 13:41:00;;;;;;;;;5.50;3.00;;;;;;;;5077586;27;45292;-75
2021/10/21 13:43:25;;;;;;;;;1.00;1.00;;;;;;;;5077612;27;45531;-74
2021/10/21 13:45:50;;;;;;;;;3.00;3.00;;;;;;;;5072774;27;47672;-74
2021/10/21 13:48:16;;;;;;;;;2.00;2.00;;;;;;;;5079290;27;45444;-75
2021/10/21 13:50:41;;;;;;;;;1.00;1.00;;;;;;;;5077182;27;45176;-75
2021/10/21 13:53:09;;;;;;;;;2.00;1.00;;;;;;;;5059837;28;47116;-75
2021/10/21 13:55:35;;;;;;;;;1.00;1.00;;;;;;;;5076909;27;45600;-75
2021/10/21 13:58:00;;;;;;;;;3.00;1.00;;;;;;;;5072586;27;45386;-74
2021/10/21 14:00:25;;;;;;;;;0.25;0.25;;;;;;;;5076495;27;45410;-76
2021/10/21 14:02:50;;;;;;;;;1.25;1.25;;;;;;;;5076576;27;46738;-74
2021/10/21 14:05:16;;;;;;;;;2.50;1.50;;;;;;;;5077003;27;45558;-77
2021/10/21 14:07:42;;;;;;;;;3.50;3.50;;;;;;;;5077387;27;45389;-75
2021/10/21 14:10:07;;;;;;;;;0.00;0.00;;;;;;;;5075182;27;45431;-75
2021/10/21 14:12:32;;;;;;;;;3.00;3.00;;;;;;;;5074631;27;46243;-76
2021/10/21 14:14:57;;;;;;;;;1.00;0.75;;;;;;;;5079159;27;45371;-74
2021/10/21 14:17:23;;;;;;;;;2.75;2.75;;;;;;;;5077162;27;45479;-73
2021/10/21 14:19:49;;;;;;;;;3.00;0.00;;;;;;;;5076282;27;45438;-75
2021/10/21 14:22:14;;;;;;;;;1.00;0.00;;;;;;;;5075911;27;45586;-74
2021/10/21 14:24:40;;;;;;;;;2.00;2.00;;;;;;;;5072951;27;45534;-75
2021/10/21 14:27:06;;;;;;;;;2.50;1.00;;;;;;;;5079290;27;45389;-73
2021/10/21 14:29:32;;;;;;;;;2.00;2.00;;;;;;;;5076593;27;45521;-73
2021/10/21 14:31:58;;;;;;;;;1.00;1.00;;;;;;;;5076132;27;46945;-74
2021/10/21 14:34:23;;;;;;;;;1.50;1.00;;;;;;;;5076113;27;45408;-73
2021/10/21 14:36:48;;;;;;;;;2.25;1.00;;;;;;;;5071160;27;45210;-73
2021/10/21 14:39:13;;;;;;;;;1.00;0.00;;;;;;;;5060062;28;45387;-74
2021/10/21 14:41:39;;;;;;;;;0.75;0.00;;;;;;;;5075278;27;45522;-73